sensor_id;sensor_type;location;lat;lon;timestamp;temperature;humidity
16134;DHT22;8172;45.018;5.972;2023-06-04T00:02:26;15.20;70.10
16134;DHT22;8172;45.018;5.972;2023-06-04T00:07:38;15.20;70.40
16134;DHT22;8172;45.018;5.972;2023-06-04T00:12:45;15.20;70.30
16134;DHT22;8172;45.018;5.972;2023-06-04T00:17:52;15.10;70.40
16134;DHT22;8172;45.018;5.972;2023-06-04T00:23:00;15.10;70.30
16134;DHT22;8172;45.018;5.972;2023-06-04T00:28:07;15.10;70.20
16134;DHT22;8172;45.018;5.972;2023-06-04T00:33:14;15.10;70.20
16134;DHT22;8172;45.018;5.972;2023-06-04T00:38:21;15.10;70.10
16134;DHT22;8172;45.018;5.972;2023-06-04T00:43:28;15.10;70.10
16134;DHT22;8172;45.018;5.972;2023-06-04T00:48:38;15.10;70.10
16134;DHT22;8172;45.018;5.972;2023-06-04T00:53:49;15.10;70.00
16134;DHT22;8172;45.018;5.972;2023-06-04T00:58:56;15.10;70.10
16134;DHT22;8172;45.018;5.972;2023-06-04T01:04:05;15.00;70.10
16134;DHT22;8172;45.018;5.972;2023-06-04T01:09:14;15.00;70.00
16134;DHT22;8172;45.018;5.972;2023-06-04T01:14:21;15.00;70.10
16134;DHT22;8172;45.018;5.972;2023-06-04T01:24:41;14.90;70.00
16134;DHT22;8172;45.018;5.972;2023-06-04T01:29:50;14.90;69.90
16134;DHT22;8172;45.018;5.972;2023-06-04T01:34:59;14.90;69.80
16134;DHT22;8172;45.018;5.972;2023-06-04T01:40:07;14.90;69.80
16134;DHT22;8172;45.018;5.972;2023-06-04T01:45:14;14.80;69.70
16134;DHT22;8172;45.018;5.972;2023-06-04T01:50:21;14.80;69.60
16134;DHT22;8172;45.018;5.972;2023-06-04T01:55:29;14.70;69.50
16134;DHT22;8172;45.018;5.972;2023-06-04T02:00:37;14.70;69.40
16134;DHT22;8172;45.018;5.972;2023-06-04T02:05:45;14.60;69.40
16134;DHT22;8172;45.018;5.972;2023-06-04T02:10:52;14.60;69.30
16134;DHT22;8172;45.018;5.972;2023-06-04T02:16:00;14.60;69.30
16134;DHT22;8172;45.018;5.972;2023-06-04T02:21:07;14.50;69.20
16134;DHT22;8172;45.018;5.972;2023-06-04T02:26:15;14.50;69.30
16134;DHT22;8172;45.018;5.972;2023-06-04T02:31:22;14.40;69.40
16134;DHT22;8172;45.018;5.972;2023-06-04T02:36:29;14.40;69.40
16134;DHT22;8172;45.018;5.972;2023-06-04T02:41:37;14.40;69.50
16134;DHT22;8172;45.018;5.972;2023-06-04T02:46:44;14.40;69.70
16134;DHT22;8172;45.018;5.972;2023-06-04T02:51:51;14.40;69.80
16134;DHT22;8172;45.018;5.972;2023-06-04T02:57:00;14.40;69.80
16134;DHT22;8172;45.018;5.972;2023-06-04T03:02:07;14.40;70.00
16134;DHT22;8172;45.018;5.972;2023-06-04T03:07:15;14.50;70.10
16134;DHT22;8172;45.018;5.972;2023-06-04T03:12:23;14.50;70.20
16134;DHT22;8172;45.018;5.972;2023-06-04T03:17:31;14.50;70.20
16134;DHT22;8172;45.018;5.972;2023-06-04T03:22:38;14.60;70.10
16134;DHT22;8172;45.018;5.972;2023-06-04T03:27:46;14.60;70.20
16134;DHT22;8172;45.018;5.972;2023-06-04T03:32:54;14.60;70.10
16134;DHT22;8172;45.018;5.972;2023-06-04T03:38:02;14.60;70.10
16134;DHT22;8172;45.018;5.972;2023-06-04T03:43:10;14.60;70.10
16134;DHT22;8172;45.018;5.972;2023-06-04T03:48:18;14.60;70.10
16134;DHT22;8172;45.018;5.972;2023-06-04T03:53:25;14.60;70.10
16134;DHT22;8172;45.018;5.972;2023-06-04T03:58:35;14.60;70.00
16134;DHT22;8172;45.018;5.972;2023-06-04T04:03:44;14.60;70.10
16134;DHT22;8172;45.018;5.972;2023-06-04T04:08:53;14.60;70.10
16134;DHT22;8172;45.018;5.972;2023-06-04T04:14:01;14.60;70.20
16134;DHT22;8172;45.018;5.972;2023-06-04T04:19:09;14.60;70.30
16134;DHT22;8172;45.018;5.972;2023-06-04T04:29:28;14.70;70.40
16134;DHT22;8172;45.018;5.972;2023-06-04T04:34:38;14.70;70.50
16134;DHT22;8172;45.018;5.972;2023-06-04T04:39:47;14.70;70.40
16134;DHT22;8172;45.018;5.972;2023-06-04T04:44:56;14.70;70.50
16134;DHT22;8172;45.018;5.972;2023-06-04T04:50:05;14.70;70.50
16134;DHT22;8172;45.018;5.972;2023-06-04T04:55:13;14.70;70.70
16134;DHT22;8172;45.018;5.972;2023-06-04T05:00:22;14.70;70.70
16134;DHT22;8172;45.018;5.972;2023-06-04T05:05:32;14.80;70.60
16134;DHT22;8172;45.018;5.972;2023-06-04T05:10:40;14.80;70.70
16134;DHT22;8172;45.018;5.972;2023-06-04T05:15:48;14.80;70.70
16134;DHT22;8172;45.018;5.972;2023-06-04T05:20:59;14.90;70.90
16134;DHT22;8172;45.018;5.972;2023-06-04T05:26:09;14.90;71.20
16134;DHT22;8172;45.018;5.972;2023-06-04T05:31:17;15.00;71.40
16134;DHT22;8172;45.018;5.972;2023-06-04T05:36:25;15.00;71.60
16134;DHT22;8172;45.018;5.972;2023-06-04T05:41:33;15.20;72.00
16134;DHT22;8172;45.018;5.972;2023-06-04T05:46:42;15.20;71.90
16134;DHT22;8172;45.018;5.972;2023-06-04T05:51:50;15.30;72.00
16134;DHT22;8172;45.018;5.972;2023-06-04T05:56:58;15.40;71.80
16134;DHT22;8172;45.018;5.972;2023-06-04T06:02:06;15.50;71.80
16134;DHT22;8172;45.018;5.972;2023-06-04T06:07:16;15.60;71.70
16134;DHT22;8172;45.018;5.972;2023-06-04T06:12:26;15.60;71.60
16134;DHT22;8172;45.018;5.972;2023-06-04T06:17:35;15.70;71.60
16134;DHT22;8172;45.018;5.972;2023-06-04T06:22:42;15.70;71.00
16134;DHT22;8172;45.018;5.972;2023-06-04T06:27:51;15.70;70.30
16134;DHT22;8172;45.018;5.972;2023-06-04T06:33:00;15.80;70.30
16134;DHT22;8172;45.018;5.972;2023-06-04T06:38:07;15.80;70.00
16134;DHT22;8172;45.018;5.972;2023-06-04T06:43:15;15.90;70.00
16134;DHT22;8172;45.018;5.972;2023-06-04T06:48:22;16.00;70.10
16134;DHT22;8172;45.018;5.972;2023-06-04T06:53:29;16.10;69.90
16134;DHT22;8172;45.018;5.972;2023-06-04T06:58:37;16.20;70.00
16134;DHT22;8172;45.018;5.972;2023-06-04T07:03:45;16.30;70.20
16134;DHT22;8172;45.018;5.972;2023-06-04T07:08:53;16.40;70.30
16134;DHT22;8172;45.018;5.972;2023-06-04T07:14:00;16.50;70.50
16134;DHT22;8172;45.018;5.972;2023-06-04T07:19:08;16.70;70.10
16134;DHT22;8172;45.018;5.972;2023-06-04T07:24:16;16.90;70.20
16134;DHT22;8172;45.018;5.972;2023-06-04T07:29:24;17.10;69.90
16134;DHT22;8172;45.018;5.972;2023-06-04T07:34:32;17.40;69.70
16134;DHT22;8172;45.018;5.972;2023-06-04T07:39:40;17.60;69.20
16134;DHT22;8172;45.018;5.972;2023-06-04T07:44:49;17.70;68.80
16134;DHT22;8172;45.018;5.972;2023-06-04T07:49:56;17.80;68.70
16134;DHT22;8172;45.018;5.972;2023-06-04T07:55:06;17.90;68.60
16134;DHT22;8172;45.018;5.972;2023-06-04T08:00:14;17.90;68.60
16134;DHT22;8172;45.018;5.972;2023-06-04T08:05:24;17.90;68.60
16134;DHT22;8172;45.018;5.972;2023-06-04T08:10:32;18.00;67.60
16134;DHT22;8172;45.018;5.972;2023-06-04T08:15:40;17.90;67.50
16134;DHT22;8172;45.018;5.972;2023-06-04T08:20:48;17.80;68.20
16134;DHT22;8172;45.018;5.972;2023-06-04T08:25:57;17.80;68.60
16134;DHT22;8172;45.018;5.972;2023-06-04T08:31:05;17.90;68.50
16134;DHT22;8172;45.018;5.972;2023-06-04T08:36:13;17.80;67.90
16134;DHT22;8172;45.018;5.972;2023-06-04T08:46:32;17.60;67.40
16134;DHT22;8172;45.018;5.972;2023-06-04T08:51:40;17.40;66.90
16134;DHT22;8172;45.018;5.972;2023-06-04T08:56:49;17.20;66.30
16134;DHT22;8172;45.018;5.972;2023-06-04T09:01:58;17.00;66.70
16134;DHT22;8172;45.018;5.972;2023-06-04T09:07:07;16.90;66.80
16134;DHT22;8172;45.018;5.972;2023-06-04T09:12:17;16.90;67.10
16134;DHT22;8172;45.018;5.972;2023-06-04T09:17:25;16.80;67.10
16134;DHT22;8172;45.018;5.972;2023-06-04T09:22:33;16.80;68.00
16134;DHT22;8172;45.018;5.972;2023-06-04T09:27:41;16.80;68.90
16134;DHT22;8172;45.018;5.972;2023-06-04T09:32:48;16.90;69.20
16134;DHT22;8172;45.018;5.972;2023-06-04T09:37:56;16.90;69.00
16134;DHT22;8172;45.018;5.972;2023-06-04T09:43:05;17.00;69.70
16134;DHT22;8172;45.018;5.972;2023-06-04T09:53:23;17.30;69.30
16134;DHT22;8172;45.018;5.972;2023-06-04T09:58:34;17.40;69.10
16134;DHT22;8172;45.018;5.972;2023-06-04T10:03:45;17.40;68.80
16134;DHT22;8172;45.018;5.972;2023-06-04T10:08:53;17.40;68.90
16134;DHT22;8172;45.018;5.972;2023-06-04T10:14:03;17.30;68.60
16134;DHT22;8172;45.018;5.972;2023-06-04T10:19:12;17.30;68.90
16134;DHT22;8172;45.018;5.972;2023-06-04T10:24:19;17.30;69.20
16134;DHT22;8172;45.018;5.972;2023-06-04T10:29:29;17.40;70.20
16134;DHT22;8172;45.018;5.972;2023-06-04T10:34:37;17.60;68.90
16134;DHT22;8172;45.018;5.972;2023-06-04T10:39:50;17.80;69.60
16134;DHT22;8172;45.018;5.972;2023-06-04T10:44:56;17.90;67.90
16134;DHT22;8172;45.018;5.972;2023-06-04T10:55:13;17.90;67.30
16134;DHT22;8172;45.018;5.972;2023-06-04T11:00:20;17.90;66.60
16134;DHT22;8172;45.018;5.972;2023-06-04T11:10:40;17.90;66.30
16134;DHT22;8172;45.018;5.972;2023-06-04T11:15:48;17.90;66.60
16134;DHT22;8172;45.018;5.972;2023-06-04T11:20:58;17.80;67.00
16134;DHT22;8172;45.018;5.972;2023-06-04T11:26:06;17.80;67.00
16134;DHT22;8172;45.018;5.972;2023-06-04T11:31:14;17.80;67.50
16134;DHT22;8172;45.018;5.972;2023-06-04T11:41:32;17.70;67.40
16134;DHT22;8172;45.018;5.972;2023-06-04T11:46:41;17.70;68.10
16134;DHT22;8172;45.018;5.972;2023-06-04T11:51:51;17.80;66.80
16134;DHT22;8172;45.018;5.972;2023-06-04T11:56:59;17.90;66.40
16134;DHT22;8172;45.018;5.972;2023-06-04T12:02:07;17.90;66.00
16134;DHT22;8172;45.018;5.972;2023-06-04T12:07:19;17.90;65.80
16134;DHT22;8172;45.018;5.972;2023-06-04T12:12:28;17.80;65.70
16134;DHT22;8172;45.018;5.972;2023-06-04T12:17:37;17.80;65.50
16134;DHT22;8172;45.018;5.972;2023-06-04T12:22:47;17.80;65.90
16134;DHT22;8172;45.018;5.972;2023-06-04T12:27:54;17.70;67.00
16134;DHT22;8172;45.018;5.972;2023-06-04T12:33:02;17.70;67.10
16134;DHT22;8172;45.018;5.972;2023-06-04T12:38:09;17.70;66.80
16134;DHT22;8172;45.018;5.972;2023-06-04T12:43:18;17.80;66.40
16134;DHT22;8172;45.018;5.972;2023-06-04T12:48:26;17.80;66.50
16134;DHT22;8172;45.018;5.972;2023-06-04T12:53:34;17.80;65.90
16134;DHT22;8172;45.018;5.972;2023-06-04T12:58:42;17.80;66.20
16134;DHT22;8172;45.018;5.972;2023-06-04T13:03:50;17.90;66.20
16134;DHT22;8172;45.018;5.972;2023-06-04T13:08:58;17.90;65.90
16134;DHT22;8172;45.018;5.972;2023-06-04T13:14:08;17.90;64.80
16134;DHT22;8172;45.018;5.972;2023-06-04T13:19:17;17.90;63.80
16134;DHT22;8172;45.018;5.972;2023-06-04T13:24:26;17.90;63.70
16134;DHT22;8172;45.018;5.972;2023-06-04T13:29:33;17.90;63.20
16134;DHT22;8172;45.018;5.972;2023-06-04T13:34:41;18.00;62.70
16134;DHT22;8172;45.018;5.972;2023-06-04T13:39:48;18.10;62.50
16134;DHT22;8172;45.018;5.972;2023-06-04T13:44:57;18.20;62.40
16134;DHT22;8172;45.018;5.972;2023-06-04T13:50:05;18.30;63.70
16134;DHT22;8172;45.018;5.972;2023-06-04T13:55:13;18.40;63.80
16134;DHT22;8172;45.018;5.972;2023-06-04T14:00:22;18.40;63.90
16134;DHT22;8172;45.018;5.972;2023-06-04T14:05:29;18.40;63.70
16134;DHT22;8172;45.018;5.972;2023-06-04T14:10:37;18.30;64.10
16134;DHT22;8172;45.018;5.972;2023-06-04T14:15:46;18.30;64.70
16134;DHT22;8172;45.018;5.972;2023-06-04T14:20:54;18.20;65.80
16134;DHT22;8172;45.018;5.972;2023-06-04T14:26:01;18.20;66.50
16134;DHT22;8172;45.018;5.972;2023-06-04T14:31:09;18.10;66.60
16134;DHT22;8172;45.018;5.972;2023-06-04T14:36:17;18.00;67.10
16134;DHT22;8172;45.018;5.972;2023-06-04T14:41:31;17.90;67.80
16134;DHT22;8172;45.018;5.972;2023-06-04T14:47:00;17.90;68.60
16134;DHT22;8172;45.018;5.972;2023-06-04T14:52:13;17.80;68.60
16134;DHT22;8172;45.018;5.972;2023-06-04T14:57:32;17.70;68.70
16134;DHT22;8172;45.018;5.972;2023-06-04T15:02:42;17.60;68.90
16134;DHT22;8172;45.018;5.972;2023-06-04T15:08:05;17.60;69.30
16134;DHT22;8172;45.018;5.972;2023-06-04T15:13:21;17.50;69.60
16134;DHT22;8172;45.018;5.972;2023-06-04T15:18:38;17.40;70.00
16134;DHT22;8172;45.018;5.972;2023-06-04T15:23:53;17.40;70.70
16134;DHT22;8172;45.018;5.972;2023-06-04T15:29:25;17.30;70.60
16134;DHT22;8172;45.018;5.972;2023-06-04T15:34:47;17.30;70.90
16134;DHT22;8172;45.018;5.972;2023-06-04T15:40:13;17.30;71.20
16134;DHT22;8172;45.018;5.972;2023-06-04T15:45:40;17.50;72.00
16134;DHT22;8172;45.018;5.972;2023-06-04T15:51:16;17.70;71.60
16134;DHT22;8172;45.018;5.972;2023-06-04T15:56:25;17.90;70.90
16134;DHT22;8172;45.018;5.972;2023-06-04T16:07:07;18.20;70.20
16134;DHT22;8172;45.018;5.972;2023-06-04T16:12:33;18.30;69.50
16134;DHT22;8172;45.018;5.972;2023-06-04T16:17:44;18.20;68.50
16134;DHT22;8172;45.018;5.972;2023-06-04T16:23:10;18.00;68.90
16134;DHT22;8172;45.018;5.972;2023-06-04T16:28:36;17.80;69.30
16134;DHT22;8172;45.018;5.972;2023-06-04T16:33:45;17.40;70.00
16134;DHT22;8172;45.018;5.972;2023-06-04T16:38:53;17.20;70.90
16134;DHT22;8172;45.018;5.972;2023-06-04T16:44:03;16.90;71.70
16134;DHT22;8172;45.018;5.972;2023-06-04T16:49:43;16.80;71.80
16134;DHT22;8172;45.018;5.972;2023-06-04T16:54:50;16.70;71.50
16134;DHT22;8172;45.018;5.972;2023-06-04T16:59:57;16.50;71.70
16134;DHT22;8172;45.018;5.972;2023-06-04T17:05:07;16.40;72.00
16134;DHT22;8172;45.018;5.972;2023-06-04T17:10:16;16.30;72.30
16134;DHT22;8172;45.018;5.972;2023-06-04T17:15:25;16.20;72.60
16134;DHT22;8172;45.018;5.972;2023-06-04T17:20:32;16.10;73.00
16134;DHT22;8172;45.018;5.972;2023-06-04T17:25:39;16.10;73.30
16134;DHT22;8172;45.018;5.972;2023-06-04T17:30:47;16.10;73.30
16134;DHT22;8172;45.018;5.972;2023-06-04T17:35:54;16.10;73.20
16134;DHT22;8172;45.018;5.972;2023-06-04T17:41:02;16.10;73.60
16134;DHT22;8172;45.018;5.972;2023-06-04T17:46:10;16.00;73.80
16134;DHT22;8172;45.018;5.972;2023-06-04T17:51:18;16.00;73.80
16134;DHT22;8172;45.018;5.972;2023-06-04T17:56:25;15.90;73.70
16134;DHT22;8172;45.018;5.972;2023-06-04T18:01:33;15.90;73.70
16134;DHT22;8172;45.018;5.972;2023-06-04T18:06:41;15.90;73.40
16134;DHT22;8172;45.018;5.972;2023-06-04T18:11:49;15.90;73.60
16134;DHT22;8172;45.018;5.972;2023-06-04T18:16:56;15.90;74.00
16134;DHT22;8172;45.018;5.972;2023-06-04T18:22:03;15.90;74.00
16134;DHT22;8172;45.018;5.972;2023-06-04T18:27:12;15.90;74.00
16134;DHT22;8172;45.018;5.972;2023-06-04T18:32:19;16.00;74.00
16134;DHT22;8172;45.018;5.972;2023-06-04T18:37:27;15.90;73.90
16134;DHT22;8172;45.018;5.972;2023-06-04T18:42:34;15.80;73.90
16134;DHT22;8172;45.018;5.972;2023-06-04T18:47:42;15.80;74.10
16134;DHT22;8172;45.018;5.972;2023-06-04T18:52:49;15.80;74.10
16134;DHT22;8172;45.018;5.972;2023-06-04T18:57:58;15.80;74.20
16134;DHT22;8172;45.018;5.972;2023-06-04T19:03:06;15.70;74.10
16134;DHT22;8172;45.018;5.972;2023-06-04T19:08:14;15.70;74.10
16134;DHT22;8172;45.018;5.972;2023-06-04T19:13:21;15.50;74.30
16134;DHT22;8172;45.018;5.972;2023-06-04T19:18:28;15.40;74.50
16134;DHT22;8172;45.018;5.972;2023-06-04T19:23:36;15.30;74.70
16134;DHT22;8172;45.018;5.972;2023-06-04T19:28:45;15.20;74.90
16134;DHT22;8172;45.018;5.972;2023-06-04T19:33:52;15.20;75.10
16134;DHT22;8172;45.018;5.972;2023-06-04T19:39:00;15.20;75.40
16134;DHT22;8172;45.018;5.972;2023-06-04T19:44:09;15.20;75.40
16134;DHT22;8172;45.018;5.972;2023-06-04T19:49:17;15.20;75.70
16134;DHT22;8172;45.018;5.972;2023-06-04T19:54:25;15.20;76.00
16134;DHT22;8172;45.018;5.972;2023-06-04T19:59:33;15.00;76.20
16134;DHT22;8172;45.018;5.972;2023-06-04T20:04:40;15.00;76.40
16134;DHT22;8172;45.018;5.972;2023-06-04T20:09:49;15.10;76.40
16134;DHT22;8172;45.018;5.972;2023-06-04T20:14:57;15.10;76.20
16134;DHT22;8172;45.018;5.972;2023-06-04T20:20:05;15.10;76.10
16134;DHT22;8172;45.018;5.972;2023-06-04T20:25:12;15.20;75.90
16134;DHT22;8172;45.018;5.972;2023-06-04T20:30:19;15.20;75.80
16134;DHT22;8172;45.018;5.972;2023-06-04T20:35:28;15.20;75.80
16134;DHT22;8172;45.018;5.972;2023-06-04T20:40:36;15.30;75.60
16134;DHT22;8172;45.018;5.972;2023-06-04T20:45:44;15.40;75.50
16134;DHT22;8172;45.018;5.972;2023-06-04T20:50:53;15.30;75.50
16134;DHT22;8172;45.018;5.972;2023-06-04T20:56:03;15.40;75.40
16134;DHT22;8172;45.018;5.972;2023-06-04T21:01:11;15.40;75.40
16134;DHT22;8172;45.018;5.972;2023-06-04T21:06:20;15.40;75.30
16134;DHT22;8172;45.018;5.972;2023-06-04T21:11:27;15.40;75.20
16134;DHT22;8172;45.018;5.972;2023-06-04T21:16:34;15.40;75.10
16134;DHT22;8172;45.018;5.972;2023-06-04T21:21:42;15.40;75.10
16134;DHT22;8172;45.018;5.972;2023-06-04T21:26:49;15.40;75.10
16134;DHT22;8172;45.018;5.972;2023-06-04T21:31:57;15.40;75.00
16134;DHT22;8172;45.018;5.972;2023-06-04T21:37:04;15.40;75.00
16134;DHT22;8172;45.018;5.972;2023-06-04T21:42:12;15.40;75.00
16134;DHT22;8172;45.018;5.972;2023-06-04T21:47:19;15.40;75.00
16134;DHT22;8172;45.018;5.972;2023-06-04T21:52:27;15.50;75.00
16134;DHT22;8172;45.018;5.972;2023-06-04T21:57:34;15.50;74.90
16134;DHT22;8172;45.018;5.972;2023-06-04T22:02:42;15.50;74.70
16134;DHT22;8172;45.018;5.972;2023-06-04T22:07:49;15.50;74.60
16134;DHT22;8172;45.018;5.972;2023-06-04T22:12:58;15.50;74.50
16134;DHT22;8172;45.018;5.972;2023-06-04T22:18:05;15.50;74.30
16134;DHT22;8172;45.018;5.972;2023-06-04T22:23:13;15.50;74.10
16134;DHT22;8172;45.018;5.972;2023-06-04T22:28:20;15.50;73.80
16134;DHT22;8172;45.018;5.972;2023-06-04T22:33:28;15.50;73.60
16134;DHT22;8172;45.018;5.972;2023-06-04T22:38:35;15.40;73.50
16134;DHT22;8172;45.018;5.972;2023-06-04T22:43:42;15.40;73.50
16134;DHT22;8172;45.018;5.972;2023-06-04T22:48:50;15.30;73.60
16134;DHT22;8172;45.018;5.972;2023-06-04T22:53:58;15.30;73.60
16134;DHT22;8172;45.018;5.972;2023-06-04T22:59:05;15.30;73.40
16134;DHT22;8172;45.018;5.972;2023-06-04T23:04:13;15.20;73.30
16134;DHT22;8172;45.018;5.972;2023-06-04T23:09:20;15.20;73.30
16134;DHT22;8172;45.018;5.972;2023-06-04T23:14:28;15.20;73.30
16134;DHT22;8172;45.018;5.972;2023-06-04T23:19:37;15.20;73.30
16134;DHT22;8172;45.018;5.972;2023-06-04T23:24:44;15.10;73.30
16134;DHT22;8172;45.018;5.972;2023-06-04T23:29:51;15.10;73.50
16134;DHT22;8172;45.018;5.972;2023-06-04T23:34:59;15.10;73.90
16134;DHT22;8172;45.018;5.972;2023-06-04T23:40:07;15.10;74.30
16134;DHT22;8172;45.018;5.972;2023-06-04T23:45:15;15.20;74.30
16134;DHT22;8172;45.018;5.972;2023-06-04T23:50:22;15.20;74.30
16134;DHT22;8172;45.018;5.972;2023-06-04T23:55:30;15.30;74.20
